sensor_id;sensor_type;location;lat;lon;timestamp;temperature;humidity
1614;DHT22;800;48.824;9.346;2023-07-24T00:00:14;24.50;53.80
1614;DHT22;800;48.824;9.346;2023-07-24T00:02:40;24.50;54.00
1614;DHT22;800;48.824;9.346;2023-07-24T00:05:06;24.60;54.20
1614;DHT22;800;48.824;9.346;2023-07-24T00:07:31;24.50;54.60
1614;DHT22;800;48.824;9.346;2023-07-24T00:09:57;24.50;55.40
1614;DHT22;800;48.824;9.346;2023-07-24T00:12:22;24.20;56.50
1614;DHT22;800;48.824;9.346;2023-07-24T00:14:48;23.90;57.10
1614;DHT22;800;48.824;9.346;2023-07-24T00:17:14;24.00;57.20
1614;DHT22;800;48.824;9.346;2023-07-24T00:19:39;24.20;56.90
1614;DHT22;800;48.824;9.346;2023-07-24T00:22:05;24.30;56.50
1614;DHT22;800;48.824;9.346;2023-07-24T00:24:31;24.30;56.70
1614;DHT22;800;48.824;9.346;2023-07-24T00:26:57;24.30;57.20
1614;DHT22;800;48.824;9.346;2023-07-24T00:29:23;24.10;57.40
1614;DHT22;800;48.824;9.346;2023-07-24T00:31:49;24.20;57.50
1614;DHT22;800;48.824;9.346;2023-07-24T00:34:14;24.20;57.80
1614;DHT22;800;48.824;9.346;2023-07-24T00:36:40;24.30;58.00
1614;DHT22;800;48.824;9.346;2023-07-24T00:39:06;24.30;58.40
1614;DHT22;800;48.824;9.346;2023-07-24T00:41:32;24.00;59.20
1614;DHT22;800;48.824;9.346;2023-07-24T00:43:57;23.50;60.70
1614;DHT22;800;48.824;9.346;2023-07-24T00:46:23;23.20;61.60
1614;DHT22;800;48.824;9.346;2023-07-24T00:48:50;23.30;61.20
1614;DHT22;800;48.824;9.346;2023-07-24T00:51:16;22.90;61.20
1614;DHT22;800;48.824;9.346;2023-07-24T00:53:42;22.40;63.20
1614;DHT22;800;48.824;9.346;2023-07-24T00:56:08;21.90;65.30
1614;DHT22;800;48.824;9.346;2023-07-24T00:58:37;22.00;65.40
1614;DHT22;800;48.824;9.346;2023-07-24T01:01:03;22.40;64.50
1614;DHT22;800;48.824;9.346;2023-07-24T01:03:34;22.70;63.60
1614;DHT22;800;48.824;9.346;2023-07-24T01:06:03;22.40;62.70
1614;DHT22;800;48.824;9.346;2023-07-24T01:08:29;22.20;63.80
1614;DHT22;800;48.824;9.346;2023-07-24T01:10:57;22.20;63.00
1614;DHT22;800;48.824;9.346;2023-07-24T01:13:25;22.10;62.90
1614;DHT22;800;48.824;9.346;2023-07-24T01:16:04;22.20;62.50
1614;DHT22;800;48.824;9.346;2023-07-24T01:18:34;22.30;61.80
1614;DHT22;800;48.824;9.346;2023-07-24T01:21:03;22.20;61.10
1614;DHT22;800;48.824;9.346;2023-07-24T01:26:16;21.90;60.60
1614;DHT22;800;48.824;9.346;2023-07-24T01:28:42;21.90;60.60
1614;DHT22;800;48.824;9.346;2023-07-24T01:31:08;21.70;60.60
1614;DHT22;800;48.824;9.346;2023-07-24T01:33:33;21.70;61.30
1614;DHT22;800;48.824;9.346;2023-07-24T01:36:01;21.80;60.70
1614;DHT22;800;48.824;9.346;2023-07-24T01:38:28;22.00;60.30
1614;DHT22;800;48.824;9.346;2023-07-24T01:40:56;22.10;59.90
1614;DHT22;800;48.824;9.346;2023-07-24T01:43:22;22.20;59.50
1614;DHT22;800;48.824;9.346;2023-07-24T01:45:48;22.10;59.70
1614;DHT22;800;48.824;9.346;2023-07-24T01:48:13;22.00;60.00
1614;DHT22;800;48.824;9.346;2023-07-24T01:50:39;22.30;59.90
1614;DHT22;800;48.824;9.346;2023-07-24T01:53:04;22.50;59.40
1614;DHT22;800;48.824;9.346;2023-07-24T01:55:30;22.50;59.60
1614;DHT22;800;48.824;9.346;2023-07-24T01:57:56;22.50;59.30
1614;DHT22;800;48.824;9.346;2023-07-24T02:00:21;22.50;59.00
1614;DHT22;800;48.824;9.346;2023-07-24T02:02:47;22.40;59.40
1614;DHT22;800;48.824;9.346;2023-07-24T02:05:13;22.40;59.00
1614;DHT22;800;48.824;9.346;2023-07-24T02:07:38;22.50;58.60
1614;DHT22;800;48.824;9.346;2023-07-24T02:10:04;22.50;58.40
1614;DHT22;800;48.824;9.346;2023-07-24T02:12:30;22.40;58.70
1614;DHT22;800;48.824;9.346;2023-07-24T02:14:55;22.20;59.60
1614;DHT22;800;48.824;9.346;2023-07-24T02:17:23;22.30;60.00
1614;DHT22;800;48.824;9.346;2023-07-24T02:19:48;22.10;60.50
1614;DHT22;800;48.824;9.346;2023-07-24T02:22:15;22.10;60.50
1614;DHT22;800;48.824;9.346;2023-07-24T02:24:41;22.00;60.30
1614;DHT22;800;48.824;9.346;2023-07-24T02:27:06;22.00;60.00
1614;DHT22;800;48.824;9.346;2023-07-24T02:29:32;22.00;59.80
1614;DHT22;800;48.824;9.346;2023-07-24T02:31:59;21.80;60.00
1614;DHT22;800;48.824;9.346;2023-07-24T02:34:24;21.70;60.40
1614;DHT22;800;48.824;9.346;2023-07-24T02:36:52;21.60;60.60
1614;DHT22;800;48.824;9.346;2023-07-24T02:39:19;21.60;60.50
1614;DHT22;800;48.824;9.346;2023-07-24T02:41:44;21.60;60.60
1614;DHT22;800;48.824;9.346;2023-07-24T02:44:10;21.50;61.20
1614;DHT22;800;48.824;9.346;2023-07-24T02:46:36;21.50;61.60
1614;DHT22;800;48.824;9.346;2023-07-24T02:49:02;21.60;61.10
1614;DHT22;800;48.824;9.346;2023-07-24T02:51:27;21.40;61.20
1614;DHT22;800;48.824;9.346;2023-07-24T02:53:54;21.30;61.50
1614;DHT22;800;48.824;9.346;2023-07-24T02:56:19;21.40;61.30
1614;DHT22;800;48.824;9.346;2023-07-24T02:58:46;21.40;61.10
1614;DHT22;800;48.824;9.346;2023-07-24T03:01:11;21.40;60.90
1614;DHT22;800;48.824;9.346;2023-07-24T03:03:39;21.40;61.20
1614;DHT22;800;48.824;9.346;2023-07-24T03:06:05;21.40;61.10
1614;DHT22;800;48.824;9.346;2023-07-24T03:08:31;21.30;61.20
1614;DHT22;800;48.824;9.346;2023-07-24T03:10:57;21.40;61.50
1614;DHT22;800;48.824;9.346;2023-07-24T03:13:23;21.40;61.00
1614;DHT22;800;48.824;9.346;2023-07-24T03:15:56;21.40;61.40
1614;DHT22;800;48.824;9.346;2023-07-24T03:18:21;21.50;60.90
1614;DHT22;800;48.824;9.346;2023-07-24T03:20:47;21.60;61.00
1614;DHT22;800;48.824;9.346;2023-07-24T03:23:13;21.50;61.30
1614;DHT22;800;48.824;9.346;2023-07-24T03:25:38;21.50;61.20
1614;DHT22;800;48.824;9.346;2023-07-24T03:28:04;21.60;60.70
1614;DHT22;800;48.824;9.346;2023-07-24T03:30:30;21.60;60.70
1614;DHT22;800;48.824;9.346;2023-07-24T03:32:55;21.70;60.70
1614;DHT22;800;48.824;9.346;2023-07-24T03:35:21;21.50;60.90
1614;DHT22;800;48.824;9.346;2023-07-24T03:37:46;21.30;61.60
1614;DHT22;800;48.824;9.346;2023-07-24T03:40:12;21.30;61.50
1614;DHT22;800;48.824;9.346;2023-07-24T03:42:37;21.40;61.00
1614;DHT22;800;48.824;9.346;2023-07-24T03:45:03;21.50;60.40
1614;DHT22;800;48.824;9.346;2023-07-24T03:47:29;21.50;60.50
1614;DHT22;800;48.824;9.346;2023-07-24T03:49:55;21.70;60.30
1614;DHT22;800;48.824;9.346;2023-07-24T03:52:20;21.80;59.80
1614;DHT22;800;48.824;9.346;2023-07-24T03:54:46;21.90;59.60
1614;DHT22;800;48.824;9.346;2023-07-24T03:57:12;21.80;59.80
1614;DHT22;800;48.824;9.346;2023-07-24T03:59:37;21.80;60.00
1614;DHT22;800;48.824;9.346;2023-07-24T04:02:03;21.70;60.40
1614;DHT22;800;48.824;9.346;2023-07-24T04:04:29;21.80;60.50
1614;DHT22;800;48.824;9.346;2023-07-24T04:06:54;22.00;59.90
1614;DHT22;800;48.824;9.346;2023-07-24T04:09:20;22.00;59.80
1614;DHT22;800;48.824;9.346;2023-07-24T04:11:45;22.00;60.20
1614;DHT22;800;48.824;9.346;2023-07-24T04:14:11;21.90;60.40
1614;DHT22;800;48.824;9.346;2023-07-24T04:16:37;21.90;60.20
1614;DHT22;800;48.824;9.346;2023-07-24T04:19:03;21.90;60.70
1614;DHT22;800;48.824;9.346;2023-07-24T04:21:28;21.80;60.80
1614;DHT22;800;48.824;9.346;2023-07-24T04:23:54;21.80;61.10
1614;DHT22;800;48.824;9.346;2023-07-24T04:26:20;21.90;61.00
1614;DHT22;800;48.824;9.346;2023-07-24T04:28:45;21.90;60.70
1614;DHT22;800;48.824;9.346;2023-07-24T04:31:11;21.80;60.70
1614;DHT22;800;48.824;9.346;2023-07-24T04:33:37;21.80;60.90
1614;DHT22;800;48.824;9.346;2023-07-24T04:36:02;21.90;60.60
1614;DHT22;800;48.824;9.346;2023-07-24T04:38:28;22.10;60.00
1614;DHT22;800;48.824;9.346;2023-07-24T04:40:54;22.20;59.70
1614;DHT22;800;48.824;9.346;2023-07-24T04:43:19;22.30;59.50
1614;DHT22;800;48.824;9.346;2023-07-24T04:45:45;22.50;59.40
1614;DHT22;800;48.824;9.346;2023-07-24T04:48:10;22.60;58.80
1614;DHT22;800;48.824;9.346;2023-07-24T04:50:36;22.70;58.60
1614;DHT22;800;48.824;9.346;2023-07-24T04:53:02;22.80;58.10
1614;DHT22;800;48.824;9.346;2023-07-24T04:55:27;22.90;57.90
1614;DHT22;800;48.824;9.346;2023-07-24T04:57:53;22.90;57.90
1614;DHT22;800;48.824;9.346;2023-07-24T05:00:18;23.00;57.70
1614;DHT22;800;48.824;9.346;2023-07-24T05:02:44;22.90;57.70
1614;DHT22;800;48.824;9.346;2023-07-24T05:05:10;22.90;57.80
1614;DHT22;800;48.824;9.346;2023-07-24T05:07:35;22.70;58.50
1614;DHT22;800;48.824;9.346;2023-07-24T05:10:01;22.50;59.20
1614;DHT22;800;48.824;9.346;2023-07-24T05:12:26;22.50;59.10
1614;DHT22;800;48.824;9.346;2023-07-24T05:14:52;22.60;58.90
1614;DHT22;800;48.824;9.346;2023-07-24T05:17:18;22.50;59.10
1614;DHT22;800;48.824;9.346;2023-07-24T05:19:43;22.60;59.60
1614;DHT22;800;48.824;9.346;2023-07-24T05:22:09;22.60;59.50
1614;DHT22;800;48.824;9.346;2023-07-24T05:24:36;22.50;59.50
1614;DHT22;800;48.824;9.346;2023-07-24T05:27:03;22.20;60.00
1614;DHT22;800;48.824;9.346;2023-07-24T05:29:29;21.90;61.30
1614;DHT22;800;48.824;9.346;2023-07-24T05:31:55;21.80;62.10
1614;DHT22;800;48.824;9.346;2023-07-24T05:34:20;21.70;63.10
1614;DHT22;800;48.824;9.346;2023-07-24T05:36:46;22.00;63.20
1614;DHT22;800;48.824;9.346;2023-07-24T05:39:11;22.10;62.30
1614;DHT22;800;48.824;9.346;2023-07-24T05:41:37;22.30;61.70
1614;DHT22;800;48.824;9.346;2023-07-24T05:44:03;22.70;60.80
1614;DHT22;800;48.824;9.346;2023-07-24T05:46:28;22.90;59.90
1614;DHT22;800;48.824;9.346;2023-07-24T05:48:54;23.10;59.10
1614;DHT22;800;48.824;9.346;2023-07-24T05:51:19;23.30;58.50
1614;DHT22;800;48.824;9.346;2023-07-24T05:53:45;23.50;58.00
1614;DHT22;800;48.824;9.346;2023-07-24T05:56:11;23.60;57.60
1614;DHT22;800;48.824;9.346;2023-07-24T05:58:36;23.70;57.30
1614;DHT22;800;48.824;9.346;2023-07-24T06:01:02;23.80;57.20
1614;DHT22;800;48.824;9.346;2023-07-24T06:03:27;23.90;57.10
1614;DHT22;800;48.824;9.346;2023-07-24T06:05:54;24.00;56.90
1614;DHT22;800;48.824;9.346;2023-07-24T06:08:20;24.00;56.60
1614;DHT22;800;48.824;9.346;2023-07-24T06:10:47;23.90;56.70
1614;DHT22;800;48.824;9.346;2023-07-24T06:13:14;23.90;56.50
1614;DHT22;800;48.824;9.346;2023-07-24T06:15:40;24.00;56.50
1614;DHT22;800;48.824;9.346;2023-07-24T06:18:06;24.10;56.50
1614;DHT22;800;48.824;9.346;2023-07-24T06:20:31;24.10;56.60
1614;DHT22;800;48.824;9.346;2023-07-24T06:22:57;24.10;56.40
1614;DHT22;800;48.824;9.346;2023-07-24T06:25:23;24.10;56.40
1614;DHT22;800;48.824;9.346;2023-07-24T06:27:48;24.10;56.20
1614;DHT22;800;48.824;9.346;2023-07-24T06:30:14;24.00;56.70
1614;DHT22;800;48.824;9.346;2023-07-24T06:32:39;23.90;55.70
1614;DHT22;800;48.824;9.346;2023-07-24T06:35:05;23.80;56.10
1614;DHT22;800;48.824;9.346;2023-07-24T06:37:31;23.70;56.20
1614;DHT22;800;48.824;9.346;2023-07-24T06:39:56;23.70;56.00
1614;DHT22;800;48.824;9.346;2023-07-24T06:42:22;23.60;56.20
1614;DHT22;800;48.824;9.346;2023-07-24T06:44:48;23.40;56.40
1614;DHT22;800;48.824;9.346;2023-07-24T06:47:13;23.30;56.60
1614;DHT22;800;48.824;9.346;2023-07-24T06:49:39;23.30;56.20
1614;DHT22;800;48.824;9.346;2023-07-24T06:52:04;23.50;56.00
1614;DHT22;800;48.824;9.346;2023-07-24T06:54:30;23.60;55.70
1614;DHT22;800;48.824;9.346;2023-07-24T06:56:56;23.90;55.10
1614;DHT22;800;48.824;9.346;2023-07-24T06:59:21;24.30;54.50
1614;DHT22;800;48.824;9.346;2023-07-24T07:01:47;24.30;54.10
1614;DHT22;800;48.824;9.346;2023-07-24T07:04:12;24.40;53.70
1614;DHT22;800;48.824;9.346;2023-07-24T07:06:38;24.50;53.20
1614;DHT22;800;48.824;9.346;2023-07-24T07:09:03;24.60;53.30
1614;DHT22;800;48.824;9.346;2023-07-24T07:11:30;24.60;53.30
1614;DHT22;800;48.824;9.346;2023-07-24T07:13:55;24.50;53.50
1614;DHT22;800;48.824;9.346;2023-07-24T07:16:21;24.40;53.70
1614;DHT22;800;48.824;9.346;2023-07-24T07:18:46;24.50;53.60
1614;DHT22;800;48.824;9.346;2023-07-24T07:21:12;24.60;53.20
1614;DHT22;800;48.824;9.346;2023-07-24T07:23:38;24.50;53.30
1614;DHT22;800;48.824;9.346;2023-07-24T07:26:03;24.40;53.70
1614;DHT22;800;48.824;9.346;2023-07-24T07:28:29;24.50;54.30
1614;DHT22;800;48.824;9.346;2023-07-24T07:30:54;24.70;54.00
1614;DHT22;800;48.824;9.346;2023-07-24T07:33:20;24.90;53.60
1614;DHT22;800;48.824;9.346;2023-07-24T07:35:49;24.80;53.70
1614;DHT22;800;48.824;9.346;2023-07-24T07:38:15;24.70;54.20
1614;DHT22;800;48.824;9.346;2023-07-24T07:40:41;24.70;54.10
1614;DHT22;800;48.824;9.346;2023-07-24T07:43:06;24.70;54.30
1614;DHT22;800;48.824;9.346;2023-07-24T07:45:32;24.70;53.90
1614;DHT22;800;48.824;9.346;2023-07-24T07:47:58;24.90;54.10
1614;DHT22;800;48.824;9.346;2023-07-24T07:50:24;24.90;53.90
1614;DHT22;800;48.824;9.346;2023-07-24T07:52:50;24.90;54.00
1614;DHT22;800;48.824;9.346;2023-07-24T07:55:16;24.90;54.20
1614;DHT22;800;48.824;9.346;2023-07-24T07:57:42;24.80;54.30
1614;DHT22;800;48.824;9.346;2023-07-24T08:00:08;24.80;54.50
1614;DHT22;800;48.824;9.346;2023-07-24T08:02:34;24.80;54.30
1614;DHT22;800;48.824;9.346;2023-07-24T08:05:00;24.80;54.60
1614;DHT22;800;48.824;9.346;2023-07-24T08:07:25;24.70;54.70
1614;DHT22;800;48.824;9.346;2023-07-24T08:09:51;24.60;55.10
1614;DHT22;800;48.824;9.346;2023-07-24T08:12:16;24.50;55.30
1614;DHT22;800;48.824;9.346;2023-07-24T08:14:42;24.60;55.60
1614;DHT22;800;48.824;9.346;2023-07-24T08:17:07;24.70;55.90
1614;DHT22;800;48.824;9.346;2023-07-24T08:19:33;24.80;56.10
1614;DHT22;800;48.824;9.346;2023-07-24T08:21:59;24.90;55.80
1614;DHT22;800;48.824;9.346;2023-07-24T08:24:25;25.20;55.60
1614;DHT22;800;48.824;9.346;2023-07-24T08:26:50;25.40;55.30
1614;DHT22;800;48.824;9.346;2023-07-24T08:29:16;25.50;55.20
1614;DHT22;800;48.824;9.346;2023-07-24T08:31:41;25.60;55.70
1614;DHT22;800;48.824;9.346;2023-07-24T08:34:07;25.70;56.00
1614;DHT22;800;48.824;9.346;2023-07-24T08:36:32;25.90;56.70
1614;DHT22;800;48.824;9.346;2023-07-24T08:38:58;25.90;56.80
1614;DHT22;800;48.824;9.346;2023-07-24T08:41:23;25.90;56.80
1614;DHT22;800;48.824;9.346;2023-07-24T08:43:49;25.80;57.70
1614;DHT22;800;48.824;9.346;2023-07-24T08:46:18;25.80;57.60
1614;DHT22;800;48.824;9.346;2023-07-24T08:48:43;25.70;59.00
1614;DHT22;800;48.824;9.346;2023-07-24T08:51:14;25.40;60.20
1614;DHT22;800;48.824;9.346;2023-07-24T08:53:42;25.60;60.60
1614;DHT22;800;48.824;9.346;2023-07-24T08:56:10;25.70;60.90
1614;DHT22;800;48.824;9.346;2023-07-24T08:58:36;25.70;62.40
1614;DHT22;800;48.824;9.346;2023-07-24T09:01:03;25.30;63.00
1614;DHT22;800;48.824;9.346;2023-07-24T09:03:30;25.00;64.60
1614;DHT22;800;48.824;9.346;2023-07-24T09:05:56;24.90;65.80
1614;DHT22;800;48.824;9.346;2023-07-24T09:08:35;24.80;65.60
1614;DHT22;800;48.824;9.346;2023-07-24T09:11:02;24.60;66.90
1614;DHT22;800;48.824;9.346;2023-07-24T09:13:29;24.70;67.70
1614;DHT22;800;48.824;9.346;2023-07-24T09:15:54;24.80;66.90
1614;DHT22;800;48.824;9.346;2023-07-24T09:18:21;24.90;65.30
1614;DHT22;800;48.824;9.346;2023-07-24T09:20:47;25.10;65.40
1614;DHT22;800;48.824;9.346;2023-07-24T09:23:14;25.20;64.20
1614;DHT22;800;48.824;9.346;2023-07-24T09:25:42;25.30;65.10
1614;DHT22;800;48.824;9.346;2023-07-24T09:28:17;25.40;64.20
1614;DHT22;800;48.824;9.346;2023-07-24T09:30:53;25.70;64.90
1614;DHT22;800;48.824;9.346;2023-07-24T09:33:20;25.90;63.40
1614;DHT22;800;48.824;9.346;2023-07-24T09:35:57;25.90;61.70
1614;DHT22;800;48.824;9.346;2023-07-24T09:38:22;26.10;61.60
1614;DHT22;800;48.824;9.346;2023-07-24T09:40:48;26.10;62.30
1614;DHT22;800;48.824;9.346;2023-07-24T09:43:23;26.30;61.20
1614;DHT22;800;48.824;9.346;2023-07-24T09:45:50;26.30;59.90
1614;DHT22;800;48.824;9.346;2023-07-24T09:48:17;26.40;60.10
1614;DHT22;800;48.824;9.346;2023-07-24T09:50:45;26.40;59.40
1614;DHT22;800;48.824;9.346;2023-07-24T09:56:03;26.40;59.90
1614;DHT22;800;48.824;9.346;2023-07-24T09:58:33;26.60;59.70
1614;DHT22;800;48.824;9.346;2023-07-24T10:01:07;26.70;59.10
1614;DHT22;800;48.824;9.346;2023-07-24T10:03:40;26.70;58.60
1614;DHT22;800;48.824;9.346;2023-07-24T10:06:08;26.70;58.50
1614;DHT22;800;48.824;9.346;2023-07-24T10:08:39;26.50;58.60
1614;DHT22;800;48.824;9.346;2023-07-24T10:11:04;26.50;58.70
1614;DHT22;800;48.824;9.346;2023-07-24T10:13:31;26.50;59.20
1614;DHT22;800;48.824;9.346;2023-07-24T10:15:57;26.40;59.20
1614;DHT22;800;48.824;9.346;2023-07-24T10:18:27;26.10;59.60
1614;DHT22;800;48.824;9.346;2023-07-24T10:21:04;26.00;59.70
1614;DHT22;800;48.824;9.346;2023-07-24T10:23:31;26.00;59.50
1614;DHT22;800;48.824;9.346;2023-07-24T10:26:05;26.00;60.50
1614;DHT22;800;48.824;9.346;2023-07-24T10:28:38;26.10;60.60
1614;DHT22;800;48.824;9.346;2023-07-24T10:31:06;26.10;60.70
1614;DHT22;800;48.824;9.346;2023-07-24T10:33:35;26.10;60.80
1614;DHT22;800;48.824;9.346;2023-07-24T10:36:07;26.20;60.50
1614;DHT22;800;48.824;9.346;2023-07-24T10:38:40;26.30;60.40
1614;DHT22;800;48.824;9.346;2023-07-24T10:41:07;26.30;60.10
1614;DHT22;800;48.824;9.346;2023-07-24T10:43:48;26.30;60.00
1614;DHT22;800;48.824;9.346;2023-07-24T10:46:16;26.40;60.60
1614;DHT22;800;48.824;9.346;2023-07-24T10:48:47;26.40;61.60
1614;DHT22;800;48.824;9.346;2023-07-24T10:51:14;26.40;62.00
1614;DHT22;800;48.824;9.346;2023-07-24T10:53:45;26.30;61.80
1614;DHT22;800;48.824;9.346;2023-07-24T10:56:12;26.30;62.00
1614;DHT22;800;48.824;9.346;2023-07-24T10:58:37;26.30;62.40
1614;DHT22;800;48.824;9.346;2023-07-24T11:01:04;26.30;62.50
1614;DHT22;800;48.824;9.346;2023-07-24T11:03:30;26.30;63.20
1614;DHT22;800;48.824;9.346;2023-07-24T11:05:57;26.30;64.20
1614;DHT22;800;48.824;9.346;2023-07-24T11:08:23;26.10;65.40
1614;DHT22;800;48.824;9.346;2023-07-24T11:10:54;26.10;66.30
1614;DHT22;800;48.824;9.346;2023-07-24T11:13:22;26.10;67.00
1614;DHT22;800;48.824;9.346;2023-07-24T11:15:49;25.90;67.80
1614;DHT22;800;48.824;9.346;2023-07-24T11:18:15;25.70;68.10
1614;DHT22;800;48.824;9.346;2023-07-24T11:20:47;25.60;68.20
1614;DHT22;800;48.824;9.346;2023-07-24T11:23:13;25.40;68.80
1614;DHT22;800;48.824;9.346;2023-07-24T11:25:40;25.00;70.80
1614;DHT22;800;48.824;9.346;2023-07-24T11:28:07;25.00;70.40
1614;DHT22;800;48.824;9.346;2023-07-24T11:30:33;24.70;71.50
1614;DHT22;800;48.824;9.346;2023-07-24T11:33:00;24.60;73.80
1614;DHT22;800;48.824;9.346;2023-07-24T11:35:27;24.50;71.50
1614;DHT22;800;48.824;9.346;2023-07-24T11:37:53;24.50;72.10
1614;DHT22;800;48.824;9.346;2023-07-24T11:40:19;24.40;71.20
1614;DHT22;800;48.824;9.346;2023-07-24T11:42:47;24.50;72.00
1614;DHT22;800;48.824;9.346;2023-07-24T11:45:14;23.90;73.00
1614;DHT22;800;48.824;9.346;2023-07-24T11:47:44;23.60;76.00
1614;DHT22;800;48.824;9.346;2023-07-24T11:50:10;23.80;76.20
1614;DHT22;800;48.824;9.346;2023-07-24T11:52:43;23.90;77.10
1614;DHT22;800;48.824;9.346;2023-07-24T11:55:13;24.20;77.40
1614;DHT22;800;48.824;9.346;2023-07-24T11:57:39;24.50;79.00
1614;DHT22;800;48.824;9.346;2023-07-24T12:00:06;24.80;76.50
1614;DHT22;800;48.824;9.346;2023-07-24T12:02:42;25.10;74.40
1614;DHT22;800;48.824;9.346;2023-07-24T12:05:10;25.00;68.90
1614;DHT22;800;48.824;9.346;2023-07-24T12:07:36;25.00;69.30
1614;DHT22;800;48.824;9.346;2023-07-24T12:10:03;25.00;67.70
1614;DHT22;800;48.824;9.346;2023-07-24T12:12:48;24.70;68.30
1614;DHT22;800;48.824;9.346;2023-07-24T12:15:14;24.80;68.30
1614;DHT22;800;48.824;9.346;2023-07-24T12:17:40;24.80;67.60
1614;DHT22;800;48.824;9.346;2023-07-24T12:20:07;24.90;67.80
1614;DHT22;800;48.824;9.346;2023-07-24T12:22:37;25.00;67.70
1614;DHT22;800;48.824;9.346;2023-07-24T12:25:04;24.70;68.60
1614;DHT22;800;48.824;9.346;2023-07-24T12:27:30;24.80;69.80
1614;DHT22;800;48.824;9.346;2023-07-24T12:29:56;24.90;69.80
1614;DHT22;800;48.824;9.346;2023-07-24T12:32:22;25.00;69.60
1614;DHT22;800;48.824;9.346;2023-07-24T12:34:49;25.20;68.80
1614;DHT22;800;48.824;9.346;2023-07-24T12:37:16;25.40;69.10
1614;DHT22;800;48.824;9.346;2023-07-24T12:39:41;25.60;68.70
1614;DHT22;800;48.824;9.346;2023-07-24T12:42:07;25.70;67.50
1614;DHT22;800;48.824;9.346;2023-07-24T12:44:32;25.80;67.10
1614;DHT22;800;48.824;9.346;2023-07-24T12:46:58;25.90;66.90
1614;DHT22;800;48.824;9.346;2023-07-24T12:49:24;26.00;66.70
1614;DHT22;800;48.824;9.346;2023-07-24T12:51:50;25.90;65.90
1614;DHT22;800;48.824;9.346;2023-07-24T12:54:16;25.90;66.50
1614;DHT22;800;48.824;9.346;2023-07-24T12:56:42;25.80;66.60
1614;DHT22;800;48.824;9.346;2023-07-24T12:59:08;25.90;66.50
1614;DHT22;800;48.824;9.346;2023-07-24T13:01:33;26.00;66.60
1614;DHT22;800;48.824;9.346;2023-07-24T13:03:59;25.90;65.90
1614;DHT22;800;48.824;9.346;2023-07-24T13:06:25;26.10;65.70
1614;DHT22;800;48.824;9.346;2023-07-24T13:08:50;26.20;65.50
1614;DHT22;800;48.824;9.346;2023-07-24T13:11:16;26.30;65.70
1614;DHT22;800;48.824;9.346;2023-07-24T13:13:41;26.40;65.40
1614;DHT22;800;48.824;9.346;2023-07-24T13:16:07;26.20;64.60
1614;DHT22;800;48.824;9.346;2023-07-24T13:18:33;26.10;65.10
1614;DHT22;800;48.824;9.346;2023-07-24T13:20:59;26.30;64.60
1614;DHT22;800;48.824;9.346;2023-07-24T13:23:24;26.40;65.00
1614;DHT22;800;48.824;9.346;2023-07-24T13:25:52;26.50;65.30
1614;DHT22;800;48.824;9.346;2023-07-24T13:28:17;26.60;64.70
1614;DHT22;800;48.824;9.346;2023-07-24T13:30:43;26.60;64.10
1614;DHT22;800;48.824;9.346;2023-07-24T13:33:09;26.70;66.20
1614;DHT22;800;48.824;9.346;2023-07-24T13:35:35;26.70;66.30
1614;DHT22;800;48.824;9.346;2023-07-24T13:38:00;26.80;64.20
1614;DHT22;800;48.824;9.346;2023-07-24T13:40:26;26.80;65.00
1614;DHT22;800;48.824;9.346;2023-07-24T13:42:51;26.80;65.80
1614;DHT22;800;48.824;9.346;2023-07-24T13:45:17;26.60;66.60
1614;DHT22;800;48.824;9.346;2023-07-24T13:47:43;26.40;67.40
1614;DHT22;800;48.824;9.346;2023-07-24T13:50:08;26.50;67.20
1614;DHT22;800;48.824;9.346;2023-07-24T13:52:34;26.70;65.80
1614;DHT22;800;48.824;9.346;2023-07-24T13:55:00;26.90;64.00
1614;DHT22;800;48.824;9.346;2023-07-24T13:57:26;27.10;62.10
1614;DHT22;800;48.824;9.346;2023-07-24T13:59:51;27.00;61.10
1614;DHT22;800;48.824;9.346;2023-07-24T14:02:17;26.90;60.50
1614;DHT22;800;48.824;9.346;2023-07-24T14:04:44;27.00;60.00
1614;DHT22;800;48.824;9.346;2023-07-24T14:07:09;27.10;59.40
1614;DHT22;800;48.824;9.346;2023-07-24T14:09:35;27.30;59.50
1614;DHT22;800;48.824;9.346;2023-07-24T14:12:01;27.40;58.90
1614;DHT22;800;48.824;9.346;2023-07-24T14:14:26;27.60;59.30
1614;DHT22;800;48.824;9.346;2023-07-24T14:16:52;27.70;56.80
1614;DHT22;800;48.824;9.346;2023-07-24T14:19:18;27.60;56.80
1614;DHT22;800;48.824;9.346;2023-07-24T14:21:44;27.70;55.50
1614;DHT22;800;48.824;9.346;2023-07-24T14:24:10;27.80;55.90
1614;DHT22;800;48.824;9.346;2023-07-24T14:26:35;27.80;55.30
1614;DHT22;800;48.824;9.346;2023-07-24T14:29:04;27.60;54.70
1614;DHT22;800;48.824;9.346;2023-07-24T14:31:30;27.60;53.60
1614;DHT22;800;48.824;9.346;2023-07-24T14:33:55;27.50;54.10
1614;DHT22;800;48.824;9.346;2023-07-24T14:36:21;27.50;54.20
1614;DHT22;800;48.824;9.346;2023-07-24T14:38:47;27.60;54.20
1614;DHT22;800;48.824;9.346;2023-07-24T14:41:12;27.70;53.60
1614;DHT22;800;48.824;9.346;2023-07-24T14:43:40;27.50;53.40
1614;DHT22;800;48.824;9.346;2023-07-24T14:46:05;27.20;53.70
1614;DHT22;800;48.824;9.346;2023-07-24T14:48:31;27.10;54.30
1614;DHT22;800;48.824;9.346;2023-07-24T14:50:56;27.20;54.50
1614;DHT22;800;48.824;9.346;2023-07-24T14:53:22;27.30;54.50
1614;DHT22;800;48.824;9.346;2023-07-24T14:55:48;27.40;54.40
1614;DHT22;800;48.824;9.346;2023-07-24T14:58:13;27.40;54.50
1614;DHT22;800;48.824;9.346;2023-07-24T15:00:39;27.50;54.80
1614;DHT22;800;48.824;9.346;2023-07-24T15:03:04;27.50;55.00
1614;DHT22;800;48.824;9.346;2023-07-24T15:05:30;27.50;54.90
1614;DHT22;800;48.824;9.346;2023-07-24T15:07:55;27.40;54.30
1614;DHT22;800;48.824;9.346;2023-07-24T15:10:21;27.40;53.90
1614;DHT22;800;48.824;9.346;2023-07-24T15:12:47;27.00;54.90
1614;DHT22;800;48.824;9.346;2023-07-24T15:15:12;26.90;54.80
1614;DHT22;800;48.824;9.346;2023-07-24T15:17:38;26.80;52.80
1614;DHT22;800;48.824;9.346;2023-07-24T15:20:05;26.60;53.20
1614;DHT22;800;48.824;9.346;2023-07-24T15:22:30;26.30;53.80
1614;DHT22;800;48.824;9.346;2023-07-24T15:24:56;26.50;53.60
1614;DHT22;800;48.824;9.346;2023-07-24T15:27:22;26.40;53.90
1614;DHT22;800;48.824;9.346;2023-07-24T15:29:47;26.70;54.50
1614;DHT22;800;48.824;9.346;2023-07-24T15:32:13;26.70;54.50
1614;DHT22;800;48.824;9.346;2023-07-24T15:34:38;26.60;54.30
1614;DHT22;800;48.824;9.346;2023-07-24T15:37:04;26.60;54.60
1614;DHT22;800;48.824;9.346;2023-07-24T15:39:30;26.50;54.20
1614;DHT22;800;48.824;9.346;2023-07-24T15:41:55;26.40;54.50
1614;DHT22;800;48.824;9.346;2023-07-24T15:44:21;26.40;54.70
1614;DHT22;800;48.824;9.346;2023-07-24T15:46:46;26.50;55.20
1614;DHT22;800;48.824;9.346;2023-07-24T15:49:13;26.50;55.70
1614;DHT22;800;48.824;9.346;2023-07-24T15:51:39;26.50;55.90
1614;DHT22;800;48.824;9.346;2023-07-24T15:54:05;26.30;56.30
1614;DHT22;800;48.824;9.346;2023-07-24T15:56:33;26.40;56.40
1614;DHT22;800;48.824;9.346;2023-07-24T15:58:59;26.40;56.00
1614;DHT22;800;48.824;9.346;2023-07-24T16:01:26;26.20;55.80
1614;DHT22;800;48.824;9.346;2023-07-24T16:03:52;26.30;56.60
1614;DHT22;800;48.824;9.346;2023-07-24T16:06:17;26.50;56.40
1614;DHT22;800;48.824;9.346;2023-07-24T16:08:43;26.60;55.80
1614;DHT22;800;48.824;9.346;2023-07-24T16:11:09;26.70;55.40
1614;DHT22;800;48.824;9.346;2023-07-24T16:13:44;26.70;55.40
1614;DHT22;800;48.824;9.346;2023-07-24T16:16:09;26.80;55.20